sensor_id;sensor_type;location;lat;lon;timestamp;temperature;humidity
54824;DHT22;40724;53.196;5.980;2023-08-06T07:05:42;16.50;99.90
54824;DHT22;40724;53.196;5.980;2023-08-06T07:08:08;16.50;99.90
54824;DHT22;40724;53.196;5.980;2023-08-06T07:10:34;16.50;99.90
54824;DHT22;40724;53.196;5.980;2023-08-06T07:13:00;16.50;99.90
54824;DHT22;40724;53.196;5.980;2023-08-06T07:15:26;16.50;99.90
54824;DHT22;40724;53.196;5.980;2023-08-06T07:17:51;16.50;99.90
54824;DHT22;40724;53.196;5.980;2023-08-06T07:20:17;16.60;99.90
54824;DHT22;40724;53.196;5.980;2023-08-06T07:22:44;16.60;99.90
54824;DHT22;40724;53.196;5.980;2023-08-06T07:25:10;16.60;99.90
54824;DHT22;40724;53.196;5.980;2023-08-06T07:27:35;16.60;99.90
54824;DHT22;40724;53.196;5.980;2023-08-06T07:30:01;16.70;99.90
54824;DHT22;40724;53.196;5.980;2023-08-06T07:32:27;16.70;99.90
54824;DHT22;40724;53.196;5.980;2023-08-06T07:34:56;16.70;99.90
54824;DHT22;40724;53.196;5.980;2023-08-06T07:37:25;16.80;99.90
54824;DHT22;40724;53.196;5.980;2023-08-06T07:39:51;16.80;99.90
54824;DHT22;40724;53.196;5.980;2023-08-06T07:42:16;16.80;99.90
54824;DHT22;40724;53.196;5.980;2023-08-06T07:44:51;16.90;99.90
54824;DHT22;40724;53.196;5.980;2023-08-06T07:47:18;16.90;99.90
54824;DHT22;40724;53.196;5.980;2023-08-06T07:49:44;16.90;99.90
54824;DHT22;40724;53.196;5.980;2023-08-06T07:52:09;16.90;99.90
54824;DHT22;40724;53.196;5.980;2023-08-06T07:54:36;17.00;99.90
54824;DHT22;40724;53.196;5.980;2023-08-06T07:57:02;17.00;99.90
54824;DHT22;40724;53.196;5.980;2023-08-06T07:59:28;17.00;99.90
54824;DHT22;40724;53.196;5.980;2023-08-06T08:01:57;17.10;99.90
54824;DHT22;40724;53.196;5.980;2023-08-06T08:04:24;17.10;99.90
54824;DHT22;40724;53.196;5.980;2023-08-06T08:06:50;17.20;99.90
54824;DHT22;40724;53.196;5.980;2023-08-06T08:09:16;17.10;99.90
54824;DHT22;40724;53.196;5.980;2023-08-06T08:11:42;17.20;99.90
54824;DHT22;40724;53.196;5.980;2023-08-06T08:14:08;17.30;99.90
54824;DHT22;40724;53.196;5.980;2023-08-06T08:16:33;17.30;99.90
54824;DHT22;40724;53.196;5.980;2023-08-06T08:18:59;17.40;99.90
54824;DHT22;40724;53.196;5.980;2023-08-06T08:21:25;17.40;99.90
54824;DHT22;40724;53.196;5.980;2023-08-06T08:23:51;17.40;99.90
54824;DHT22;40724;53.196;5.980;2023-08-06T08:26:17;17.50;99.90
54824;DHT22;40724;53.196;5.980;2023-08-06T08:28:43;17.50;99.90
54824;DHT22;40724;53.196;5.980;2023-08-06T08:31:10;17.60;99.90
54824;DHT22;40724;53.196;5.980;2023-08-06T08:33:40;17.60;99.90
54824;DHT22;40724;53.196;5.980;2023-08-06T08:36:05;17.70;99.90
54824;DHT22;40724;53.196;5.980;2023-08-06T08:38:31;17.70;99.90
54824;DHT22;40724;53.196;5.980;2023-08-06T08:40:57;17.80;99.90
54824;DHT22;40724;53.196;5.980;2023-08-06T08:43:23;17.90;99.90
54824;DHT22;40724;53.196;5.980;2023-08-06T08:45:53;18.00;99.90
54824;DHT22;40724;53.196;5.980;2023-08-06T08:48:24;18.00;99.90
54824;DHT22;40724;53.196;5.980;2023-08-06T08:50:50;18.10;99.90
54824;DHT22;40724;53.196;5.980;2023-08-06T08:53:17;18.10;99.90
54824;DHT22;40724;53.196;5.980;2023-08-06T08:55:49;18.20;99.90
54824;DHT22;40724;53.196;5.980;2023-08-06T08:58:15;18.30;99.90
54824;DHT22;40724;53.196;5.980;2023-08-06T09:00:42;18.30;99.90
54824;DHT22;40724;53.196;5.980;2023-08-06T09:03:08;18.40;99.90
54824;DHT22;40724;53.196;5.980;2023-08-06T09:05:35;18.50;99.90
54824;DHT22;40724;53.196;5.980;2023-08-06T09:08:03;18.50;99.90
54824;DHT22;40724;53.196;5.980;2023-08-06T09:10:29;18.60;99.90
54824;DHT22;40724;53.196;5.980;2023-08-06T09:12:57;18.60;99.90
54824;DHT22;40724;53.196;5.980;2023-08-06T09:15:27;18.70;99.90
54824;DHT22;40724;53.196;5.980;2023-08-06T09:17:54;18.80;99.90
54824;DHT22;40724;53.196;5.980;2023-08-06T09:20:20;18.80;99.90
54824;DHT22;40724;53.196;5.980;2023-08-06T09:22:46;18.80;99.90
54824;DHT22;40724;53.196;5.980;2023-08-06T09:25:21;18.90;99.90
54824;DHT22;40724;53.196;5.980;2023-08-06T09:27:48;19.00;99.90
54824;DHT22;40724;53.196;5.980;2023-08-06T09:30:29;19.00;99.90
54824;DHT22;40724;53.196;5.980;2023-08-06T09:32:56;19.10;99.90
54824;DHT22;40724;53.196;5.980;2023-08-06T09:35:22;19.10;99.90
54824;DHT22;40724;53.196;5.980;2023-08-06T09:37:48;19.20;99.90
54824;DHT22;40724;53.196;5.980;2023-08-06T09:40:31;19.20;99.90
54824;DHT22;40724;53.196;5.980;2023-08-06T09:42:58;19.30;99.90
54824;DHT22;40724;53.196;5.980;2023-08-06T09:45:31;19.30;99.90
54824;DHT22;40724;53.196;5.980;2023-08-06T09:47:58;19.40;99.90
54824;DHT22;40724;53.196;5.980;2023-08-06T09:50:29;19.50;99.90
54824;DHT22;40724;53.196;5.980;2023-08-06T09:52:56;19.50;99.90
54824;DHT22;40724;53.196;5.980;2023-08-06T12:02:32;19.50;99.90
54824;DHT22;40724;53.196;5.980;2023-08-06T12:05:19;21.10;99.90
54824;DHT22;40724;53.196;5.980;2023-08-06T12:07:58;21.20;99.90
54824;DHT22;40724;53.196;5.980;2023-08-06T12:15:17;21.40;99.90
54824;DHT22;40724;53.196;5.980;2023-08-06T12:20:10;21.70;99.90
54824;DHT22;40724;53.196;5.980;2023-08-06T12:30:07;21.80;99.90
54824;DHT22;40724;53.196;5.980;2023-08-06T12:32:33;22.00;99.90
54824;DHT22;40724;53.196;5.980;2023-08-06T12:34:59;22.00;99.90
54824;DHT22;40724;53.196;5.980;2023-08-06T12:37:26;22.00;99.90
54824;DHT22;40724;53.196;5.980;2023-08-06T12:39:52;21.90;99.90
54824;DHT22;40724;53.196;5.980;2023-08-06T12:42:17;22.00;99.90
54824;DHT22;40724;53.196;5.980;2023-08-06T12:44:43;22.10;99.90
54824;DHT22;40724;53.196;5.980;2023-08-06T12:47:09;22.10;99.90
54824;DHT22;40724;53.196;5.980;2023-08-06T12:49:35;22.30;99.90
54824;DHT22;40724;53.196;5.980;2023-08-06T12:52:01;22.30;99.90
54824;DHT22;40724;53.196;5.980;2023-08-06T12:54:28;22.40;99.90
54824;DHT22;40724;53.196;5.980;2023-08-06T12:56:54;22.50;99.90
54824;DHT22;40724;53.196;5.980;2023-08-06T12:59:20;22.50;99.90
54824;DHT22;40724;53.196;5.980;2023-08-06T13:11:36;22.60;99.90
54824;DHT22;40724;53.196;5.980;2023-08-06T13:14:09;22.80;99.90
54824;DHT22;40724;53.196;5.980;2023-08-06T13:26:28;22.90;99.90
